LHBP Airport Information

Runway Information
Runway 13L Length 12162 ft width 149 ft
Elevation 495 ft Threshold 0 ft Heading 132
Runway 31R Length 12162 ft Width 149 ft
Elevation 417 ft Threshold 0 ft Heading 312
Runway 13R Length 9875 ft width 149 ft
Elevation 450 ft Threshold 0 ft Heading 132
Runway 31L Length 9875 ft Width 149 ft
Elevation 450 ft Threshold 0 ft Heading 312
Airport Frequencies
Type ACC Name BUDAPEST A Frequency 129.7 MHZ
Type APP Name DIRECTOR Frequency 119.5 MHZ
Type APRS Name Apron Guid Frequency 122.45 MHZ
Type APRW Name Apron Guid Frequency 131.55 MHZ
Type ATIS Name ATIS Frequency 132.375 MHZ
Type CDC Name Delivery Frequency 134.55 MHZ
Type GND Name GND Frequency 121.9 MHZ
Type TWR Name TWR Frequency 118.1 MHZ
Airport Navaids
Type VOR-DME Name Budapest Frequency 117300 KHZ
Type VOR-DME Name Monor Frequency 112500 KHZ
Type NDB Name Monor Frequency 288 KHZ
Type VOR-DME Name Tapiosap Frequency 115900 KHZ
Type NDB Name Tapiosap Frequency 306 KHZ
Airport Weather Information & NOTAM
ADDS - METARS form results

(0458 UTC 13 December 2018)
Data provider http://aviationweather.gov/metar/data/
 
METAR text: LHBP 130430Z 00000KT 0800 R13L/0550N R13R/0375N FZFG SCT001 M03/M03 Q1021 TEMPO 0600 FZFG BKN001
Conditions at: LHBP (BUDAPEST/FERIHEG, HU) observed 0430 UTC 13 December 2018
Temperature: -3.0°C (27°F)
Dewpoint: -3.0°C (27°F) [RH = 100%]
Pressure (altimeter): 30.15 inches Hg (1021.0 mb)
Winds: calm
Visibility: 0.50 miles (0.80 km)
Ceiling: at least 12,000 feet AGL
Clouds: scattered clouds at 100 feet AGL
Weather: FZFG  (freezing fog)

METAR text: LHBP 130417Z 00000KT 1000 R13L/0600N R13R/0300N FZBCFG BR SCT001 M03/M03 Q1021 TEMPO 0600 FZFG
Conditions at: LHBP (BUDAPEST/FERIHEG, HU) observed 0417 UTC 13 December 2018
Temperature: -3.0°C (27°F)
Dewpoint: -3.0°C (27°F) [RH = 100%]
Pressure (altimeter): 30.15 inches Hg (1021.0 mb)
Winds: calm
Visibility: 0.62 miles (1.00 km)
Ceiling: at least 12,000 feet AGL
Clouds: scattered clouds at 100 feet AGL
Weather: BCFG BR  (patches of fog, mist)

METAR text: LHBP 130400Z VRB02KT 0400 R13L/0350N R31R/0400N FZFG VV001 M03/M03 Q1021 TEMPO 0300 FZFG
Conditions at: LHBP (BUDAPEST/FERIHEG, HU) observed 0400 UTC 13 December 2018
Temperature: -3.0°C (27°F)
Dewpoint: -3.0°C (27°F) [RH = 100%]
Pressure (altimeter): 30.15 inches Hg (1021.0 mb)
Winds: variable direction winds at 2 MPH (2 knots; 1.0 m/s)
Visibility: 0.25 miles (0.40 km)
Ceiling: indefinite ceiling with vertical visibility of 100 feet AGL
Clouds: obscured sky
Weather: FZFG  (freezing fog)

Forecast for: AMD
Text: TAF AMD LHBP 130300Z 1303/1324 VRB03KT 3200 BR SCT002 BKN033
Forecast period: 0300 to 0800 UTC 13 December 2018
Forecast type: FROM: standard forecast or significant change
Winds: variable direction winds at 3 MPH (3 knots; 1.5 m/s)
Visibility: 1.99 miles (3.20 km)
Ceiling: 3300 feet AGL
Clouds: scattered clouds at 200 feet AGL
broken clouds at 3300 feet AGL
Weather: BR  (mist)
Text: TEMPO 1303/1308 0300 FZFG VV001
Forecast period: 0300 to 0800 UTC 13 December 2018
Forecast type: TEMPORARY: The following changes expected for less than half the time period
Visibility: 0.19 miles (0.31 km)
Ceiling: indefinite ceiling with vertical visibility of 100 feet AGL
Clouds: obscured sky
Weather: FZFG  (freezing fog)
Text: BECMG 1308/1310 7000 NSW SCT035
Forecast period: 0800 to 1300 UTC 13 December 2018
Forecast type: BECOMING: Conditions expected to become as follows by 1000 UTC 13 December 2018
Winds: variable direction winds at 3 MPH (3 knots; 1.5 m/s)
Visibility: 4 miles (7 km)
Ceiling: at least 12,000 feet AGL
Clouds: scattered clouds at 3500 feet AGL
Weather: NSW  (no significant weather)
Text: BECMG 1313/1315 CAVOK
Forecast period: 1300 UTC 13 December 2018 to 0000 UTC 14 December 2018
Forecast type: BECOMING: Conditions expected to become as follows by 1500 UTC 13 December 2018
Winds: variable direction winds at 3 MPH (3 knots; 1.5 m/s)
Visibility: 6 or more miles 10+ km)
Ceiling: unknown
Clouds: missing
Weather: NSW  (no significant weather)
Text: TEMPO 1320/1324 4000 BR
Forecast period: 2000 UTC 13 December 2018 to 0000 UTC 14 December 2018
Forecast type: TEMPORARY: The following changes expected for less than half the time period
Visibility: 2.49 miles (4.01 km)
Ceiling: unknown
Clouds: missing
Weather: BR  (mist)